sensor_id;sensor_type;location;lat;lon;timestamp;pressure;altitude;pressure_sealevel;temperature;humidity
24031;BME280;12240;51.142;22.486;2022-12-18T00:00:08;100584.97;;;-6.59;100.00
24031;BME280;12240;51.142;22.486;2022-12-18T00:02:42;100560.19;;;-6.83;100.00
24031;BME280;12240;51.142;22.486;2022-12-18T00:05:11;100606.59;;;-6.65;100.00
24031;BME280;12240;51.142;22.486;2022-12-18T00:07:39;100616.13;;;-6.68;100.00
24031;BME280;12240;51.142;22.486;2022-12-18T00:10:07;100563.75;;;-6.96;100.00
24031;BME280;12240;51.142;22.486;2022-12-18T00:12:36;100610.19;;;-6.76;100.00
24031;BME280;12240;51.142;22.486;2022-12-18T00:15:04;100629.00;;;-6.59;100.00
24031;BME280;12240;51.142;22.486;2022-12-18T00:17:33;100633.19;;;-6.49;100.00
24031;BME280;12240;51.142;22.486;2022-12-18T00:20:01;100636.63;;;-6.47;100.00
24031;BME280;12240;51.142;22.486;2022-12-18T00:22:29;100642.78;;;-6.56;100.00
24031;BME280;12240;51.142;22.486;2022-12-18T00:24:57;100636.78;;;-6.61;100.00
24031;BME280;12240;51.142;22.486;2022-12-18T00:27:25;100643.66;;;-6.60;100.00
24031;BME280;12240;51.142;22.486;2022-12-18T00:29:53;100639.47;;;-6.71;100.00
24031;BME280;12240;51.142;22.486;2022-12-18T00:32:21;100624.09;;;-6.89;100.00
24031;BME280;12240;51.142;22.486;2022-12-18T00:34:50;100651.75;;;-6.90;100.00
24031;BME280;12240;51.142;22.486;2022-12-18T00:37:18;100648.25;;;-6.86;100.00
24031;BME280;12240;51.142;22.486;2022-12-18T00:39:51;100588.09;;;-7.15;100.00
24031;BME280;12240;51.142;22.486;2022-12-18T00:42:20;100653.41;;;-6.84;100.00
24031;BME280;12240;51.142;22.486;2022-12-18T00:45:07;100657.78;;;-6.92;100.00
24031;BME280;12240;51.142;22.486;2022-12-18T00:47:40;100656.13;;;-6.95;100.00
24031;BME280;12240;51.142;22.486;2022-12-18T00:50:09;100601.19;;;-7.29;100.00
24031;BME280;12240;51.142;22.486;2022-12-18T00:52:41;100657.72;;;-6.83;100.00
24031;BME280;12240;51.142;22.486;2022-12-18T00:55:10;100668.84;;;-6.75;100.00
24031;BME280;12240;51.142;22.486;2022-12-18T00:57:39;100677.50;;;-6.75;100.00
24031;BME280;12240;51.142;22.486;2022-12-18T01:00:11;100586.56;;;-7.33;100.00
24031;BME280;12240;51.142;22.486;2022-12-18T01:02:43;100639.94;;;-7.21;100.00
24031;BME280;12240;51.142;22.486;2022-12-18T01:05:13;100679.41;;;-6.98;100.00
24031;BME280;12240;51.142;22.486;2022-12-18T01:07:41;100661.50;;;-7.21;100.00
24031;BME280;12240;51.142;22.486;2022-12-18T01:10:11;100697.50;;;-6.92;100.00
24031;BME280;12240;51.142;22.486;2022-12-18T01:12:40;100699.97;;;-6.78;100.00
24031;BME280;12240;51.142;22.486;2022-12-18T01:15:09;100689.78;;;-6.98;100.00
24031;BME280;12240;51.142;22.486;2022-12-18T01:17:38;100704.34;;;-6.83;100.00
24031;BME280;12240;51.142;22.486;2022-12-18T01:20:07;100663.94;;;-7.02;100.00
24031;BME280;12240;51.142;22.486;2022-12-18T01:22:36;100649.41;;;-7.22;100.00
24031;BME280;12240;51.142;22.486;2022-12-18T01:25:08;100713.78;;;-6.78;100.00
24031;BME280;12240;51.142;22.486;2022-12-18T01:27:36;100722.47;;;-6.85;100.00
24031;BME280;12240;51.142;22.486;2022-12-18T01:30:05;100675.28;;;-7.15;100.00
24031;BME280;12240;51.142;22.486;2022-12-18T01:32:33;100716.31;;;-6.73;100.00
24031;BME280;12240;51.142;22.486;2022-12-18T01:35:02;100717.16;;;-6.70;100.00
24031;BME280;12240;51.142;22.486;2022-12-18T01:37:31;100721.56;;;-6.79;100.00
24031;BME280;12240;51.142;22.486;2022-12-18T01:39:59;100724.28;;;-6.96;100.00
24031;BME280;12240;51.142;22.486;2022-12-18T01:42:27;100731.97;;;-6.85;100.00
24031;BME280;12240;51.142;22.486;2022-12-18T01:47:52;100743.25;;;-6.94;100.00
24031;BME280;12240;51.142;22.486;2022-12-18T01:50:31;100753.53;;;-6.83;100.00
24031;BME280;12240;51.142;22.486;2022-12-18T01:53:16;100739.94;;;-7.17;100.00
24031;BME280;12240;51.142;22.486;2022-12-18T01:55:55;100704.75;;;-7.36;100.00
24031;BME280;12240;51.142;22.486;2022-12-18T01:58:39;100753.66;;;-7.00;100.00
24031;BME280;12240;51.142;22.486;2022-12-18T02:01:10;100756.97;;;-6.81;100.00
24031;BME280;12240;51.142;22.486;2022-12-18T02:03:42;100774.19;;;-6.76;100.00
24031;BME280;12240;51.142;22.486;2022-12-18T02:06:40;100740.63;;;-6.91;100.00
24031;BME280;12240;51.142;22.486;2022-12-18T02:09:15;100778.44;;;-6.70;100.00
24031;BME280;12240;51.142;22.486;2022-12-18T02:14:44;100720.03;;;-7.04;100.00
24031;BME280;12240;51.142;22.486;2022-12-18T02:17:23;100772.44;;;-6.71;100.00
24031;BME280;12240;51.142;22.486;2022-12-18T02:25:32;100783.50;;;-6.54;100.00
24031;BME280;12240;51.142;22.486;2022-12-18T02:28:08;100777.44;;;-6.51;100.00
24031;BME280;12240;51.142;22.486;2022-12-18T02:30:39;100788.66;;;-6.51;100.00
24031;BME280;12240;51.142;22.486;2022-12-18T02:33:10;100724.97;;;-6.77;100.00
24031;BME280;12240;51.142;22.486;2022-12-18T02:35:50;100792.84;;;-6.38;100.00
24031;BME280;12240;51.142;22.486;2022-12-18T02:38:29;100752.56;;;-6.67;100.00
24031;BME280;12240;51.142;22.486;2022-12-18T02:41:05;100795.47;;;-6.39;100.00
24031;BME280;12240;51.142;22.486;2022-12-18T02:43:35;100788.69;;;-6.54;100.00
24031;BME280;12240;51.142;22.486;2022-12-18T02:46:37;100791.16;;;-6.39;100.00
24031;BME280;12240;51.142;22.486;2022-12-18T02:59:13;100751.63;;;-6.59;100.00
24031;BME280;12240;51.142;22.486;2022-12-18T03:02:20;100808.41;;;-6.38;100.00
24031;BME280;12240;51.142;22.486;2022-12-18T03:05:13;100782.53;;;-6.41;100.00
24031;BME280;12240;51.142;22.486;2022-12-18T03:08:00;100819.56;;;-6.28;100.00
24031;BME280;12240;51.142;22.486;2022-12-18T03:10:41;100832.47;;;-6.19;100.00
24031;BME280;12240;51.142;22.486;2022-12-18T03:16:00;100833.34;;;-6.23;100.00
24031;BME280;12240;51.142;22.486;2022-12-18T03:18:44;100816.13;;;-6.30;100.00
24031;BME280;12240;51.142;22.486;2022-12-18T03:21:15;100829.94;;;-6.30;100.00
24031;BME280;12240;51.142;22.486;2022-12-18T03:23:49;100789.44;;;-6.43;100.00
24031;BME280;12240;51.142;22.486;2022-12-18T03:26:26;100784.25;;;-6.43;100.00
24031;BME280;12240;51.142;22.486;2022-12-18T03:29:07;100826.53;;;-6.35;100.00
24031;BME280;12240;51.142;22.486;2022-12-18T03:31:40;100783.44;;;-6.48;100.00
24031;BME280;12240;51.142;22.486;2022-12-18T03:34:19;100859.19;;;-6.13;100.00
24031;BME280;12240;51.142;22.486;2022-12-18T03:36:50;100868.63;;;-6.06;100.00
24031;BME280;12240;51.142;22.486;2022-12-18T03:39:21;100851.31;;;-6.02;100.00
24031;BME280;12240;51.142;22.486;2022-12-18T03:45:28;100877.22;;;-6.04;100.00
24031;BME280;12240;51.142;22.486;2022-12-18T03:48:12;100883.25;;;-5.97;100.00
24031;BME280;12240;51.142;22.486;2022-12-18T03:50:56;100874.50;;;-5.88;100.00
24031;BME280;12240;51.142;22.486;2022-12-18T03:56:07;100884.00;;;-5.87;100.00
24031;BME280;12240;51.142;22.486;2022-12-18T03:58:42;100889.25;;;-5.92;100.00
24031;BME280;12240;51.142;22.486;2022-12-18T04:01:32;100885.69;;;-5.83;100.00
24031;BME280;12240;51.142;22.486;2022-12-18T04:04:03;100891.63;;;-5.75;100.00
24031;BME280;12240;51.142;22.486;2022-12-18T04:06:36;100895.13;;;-5.81;100.00
24031;BME280;12240;51.142;22.486;2022-12-18T04:09:05;100889.94;;;-5.78;100.00
24031;BME280;12240;51.142;22.486;2022-12-18T04:11:38;100891.63;;;-5.75;100.00
24031;BME280;12240;51.142;22.486;2022-12-18T04:14:08;100889.94;;;-5.78;100.00
24031;BME280;12240;51.142;22.486;2022-12-18T04:16:56;100893.38;;;-5.74;100.00
24031;BME280;12240;51.142;22.486;2022-12-18T04:19:30;100884.75;;;-5.78;100.00
24031;BME280;12240;51.142;22.486;2022-12-18T04:21:59;100892.41;;;-5.67;100.00
24031;BME280;12240;51.142;22.486;2022-12-18T04:24:31;100838.31;;;-6.01;100.00
24031;BME280;12240;51.142;22.486;2022-12-18T04:27:10;100909.72;;;-5.71;100.00
24031;BME280;12240;51.142;22.486;2022-12-18T04:29:44;100909.72;;;-5.66;100.00
24031;BME280;12240;51.142;22.486;2022-12-18T04:32:13;100890.81;;;-5.80;100.00
24031;BME280;12240;51.142;22.486;2022-12-18T04:34:43;100929.56;;;-5.62;100.00
24031;BME280;12240;51.142;22.486;2022-12-18T04:37:11;100915.78;;;-5.69;100.00
24031;BME280;12240;51.142;22.486;2022-12-18T04:39:40;100937.34;;;-5.62;100.00
24031;BME280;12240;51.142;22.486;2022-12-18T04:42:15;100933.91;;;-5.64;100.00
24031;BME280;12240;51.142;22.486;2022-12-18T04:44:44;100944.25;;;-5.61;100.00
24031;BME280;12240;51.142;22.486;2022-12-18T04:47:12;100943.31;;;-5.53;100.00
24031;BME280;12240;51.142;22.486;2022-12-18T04:49:40;100926.97;;;-5.64;100.00
24031;BME280;12240;51.142;22.486;2022-12-18T04:52:08;100956.22;;;-5.45;100.00
24031;BME280;12240;51.142;22.486;2022-12-18T04:54:37;100890.72;;;-5.70;100.00
24031;BME280;12240;51.142;22.486;2022-12-18T04:57:05;100954.44;;;-5.43;100.00
24031;BME280;12240;51.142;22.486;2022-12-18T04:59:34;100950.91;;;-5.36;100.00
24031;BME280;12240;51.142;22.486;2022-12-18T05:02:02;100959.59;;;-5.37;100.00
24031;BME280;12240;51.142;22.486;2022-12-18T05:04:30;100929.56;;;-5.62;100.00
24031;BME280;12240;51.142;22.486;2022-12-18T05:06:59;100935.53;;;-5.54;100.00
24031;BME280;12240;51.142;22.486;2022-12-18T05:09:27;100964.78;;;-5.37;100.00
24031;BME280;12240;51.142;22.486;2022-12-18T05:11:55;100974.19;;;-5.29;100.00
24031;BME280;12240;51.142;22.486;2022-12-18T05:14:23;100974.34;;;-5.42;100.00
24031;BME280;12240;51.142;22.486;2022-12-18T05:16:51;100982.06;;;-5.36;100.00
24031;BME280;12240;51.142;22.486;2022-12-18T05:19:26;100978.66;;;-5.41;100.00
24031;BME280;12240;51.142;22.486;2022-12-18T05:21:54;100948.59;;;-5.63;100.00
24031;BME280;12240;51.142;22.486;2022-12-18T05:24:22;100943.47;;;-5.71;100.00
24031;BME280;12240;51.142;22.486;2022-12-18T05:26:50;100980.53;;;-5.54;100.00
24031;BME280;12240;51.142;22.486;2022-12-18T05:29:18;100924.53;;;-5.79;100.00
24031;BME280;12240;51.142;22.486;2022-12-18T05:31:46;100987.31;;;-5.42;100.00
24031;BME280;12240;51.142;22.486;2022-12-18T05:34:15;100995.97;;;-5.43;100.00
24031;BME280;12240;51.142;22.486;2022-12-18T05:36:43;101004.59;;;-5.41;100.00
24031;BME280;12240;51.142;22.486;2022-12-18T05:39:11;101008.09;;;-5.42;100.00
24031;BME280;12240;51.142;22.486;2022-12-18T05:41:39;100991.66;;;-5.44;100.00
24031;BME280;12240;51.142;22.486;2022-12-18T05:44:08;100987.34;;;-5.47;100.00
24031;BME280;12240;51.142;22.486;2022-12-18T05:46:36;101006.34;;;-5.43;100.00
24031;BME280;12240;51.142;22.486;2022-12-18T05:49:04;101006.34;;;-5.43;100.00
24031;BME280;12240;51.142;22.486;2022-12-18T05:51:33;101004.59;;;-5.38;100.00
24031;BME280;12240;51.142;22.486;2022-12-18T05:54:02;101008.06;;;-5.39;100.00
24031;BME280;12240;51.142;22.486;2022-12-18T05:56:32;101002.91;;;-5.42;100.00
24031;BME280;12240;51.142;22.486;2022-12-18T05:59:00;101011.53;;;-5.40;100.00
24031;BME280;12240;51.142;22.486;2022-12-18T06:01:30;100978.03;;;-5.64;100.00
24031;BME280;12240;51.142;22.486;2022-12-18T06:03:59;101008.13;;;-5.45;100.00
24031;BME280;12240;51.142;22.486;2022-12-18T06:06:28;101030.53;;;-5.40;100.00
24031;BME280;12240;51.142;22.486;2022-12-18T06:08:57;101035.69;;;-5.34;100.00
24031;BME280;12240;51.142;22.486;2022-12-18T06:11:26;101009.09;;;-5.58;100.00
24031;BME280;12240;51.142;22.486;2022-12-18T06:13:56;101054.63;;;-5.23;100.00
24031;BME280;12240;51.142;22.486;2022-12-18T06:16:28;101016.81;;;-5.49;100.00
24031;BME280;12240;51.142;22.486;2022-12-18T06:18:59;101058.16;;;-5.28;100.00
24031;BME280;12240;51.142;22.486;2022-12-18T06:21:29;100961.84;;;-5.90;100.00
24031;BME280;12240;51.142;22.486;2022-12-18T06:23:59;101059.88;;;-5.29;100.00
24031;BME280;12240;51.142;22.486;2022-12-18T06:26:27;101071.88;;;-5.17;100.00
24031;BME280;12240;51.142;22.486;2022-12-18T06:28:56;101022.88;;;-5.50;100.00
24031;BME280;12240;51.142;22.486;2022-12-18T06:31:25;101086.50;;;-5.09;100.00
24031;BME280;12240;51.142;22.486;2022-12-18T06:33:53;101080.47;;;-5.08;100.00
24031;BME280;12240;51.142;22.486;2022-12-18T06:36:22;101030.53;;;-5.40;100.00
24031;BME280;12240;51.142;22.486;2022-12-18T06:38:50;101086.56;;;-5.13;100.00
24031;BME280;12240;51.142;22.486;2022-12-18T06:41:21;101064.16;;;-5.23;100.00
24031;BME280;12240;51.142;22.486;2022-12-18T06:43:50;101088.25;;;-5.08;100.00
24031;BME280;12240;51.142;22.486;2022-12-18T06:46:24;101079.63;;;-5.11;100.00
24031;BME280;12240;51.142;22.486;2022-12-18T06:48:53;101099.53;;;-5.12;100.00
24031;BME280;12240;51.142;22.486;2022-12-18T06:51:23;101094.34;;;-5.13;100.00
24031;BME280;12240;51.142;22.486;2022-12-18T06:53:51;101101.16;;;-5.00;100.00
24031;BME280;12240;51.142;22.486;2022-12-18T06:56:19;101048.50;;;-5.16;100.00
24031;BME280;12240;51.142;22.486;2022-12-18T06:58:48;101111.47;;;-4.91;100.00
24031;BME280;12240;51.142;22.486;2022-12-18T07:01:17;101117.56;;;-4.92;100.00
24031;BME280;12240;51.142;22.486;2022-12-18T07:03:45;101076.09;;;-5.04;100.00
24031;BME280;12240;51.142;22.486;2022-12-18T07:06:16;101125.97;;;-4.69;100.00
24031;BME280;12240;51.142;22.486;2022-12-18T07:08:46;101122.66;;;-4.85;100.00
24031;BME280;12240;51.142;22.486;2022-12-18T07:11:14;101130.31;;;-4.71;100.00
24031;BME280;12240;51.142;22.486;2022-12-18T07:13:45;101077.97;;;-5.18;100.00
24031;BME280;12240;51.142;22.486;2022-12-18T07:16:16;101084.78;;;-5.08;100.00
24031;BME280;12240;51.142;22.486;2022-12-18T07:18:54;101139.81;;;-4.67;100.00
24031;BME280;12240;51.142;22.486;2022-12-18T07:21:24;101127.00;;;-4.88;100.00
24031;BME280;12240;51.142;22.486;2022-12-18T07:23:53;101109.78;;;-4.97;100.00
24031;BME280;12240;51.142;22.486;2022-12-18T07:26:22;101132.19;;;-4.87;100.00
24031;BME280;12240;51.142;22.486;2022-12-18T07:28:50;101146.94;;;-4.87;100.00
24031;BME280;12240;51.142;22.486;2022-12-18T07:31:22;101099.53;;;-5.10;100.00
24031;BME280;12240;51.142;22.486;2022-12-18T07:33:51;101100.28;;;-5.02;100.00
24031;BME280;12240;51.142;22.486;2022-12-18T07:36:24;101169.22;;;-4.63;100.00
24031;BME280;12240;51.142;22.486;2022-12-18T07:38:52;101100.34;;;-5.07;100.00
24031;BME280;12240;51.142;22.486;2022-12-18T07:41:21;101136.44;;;-4.75;100.00
24031;BME280;12240;51.142;22.486;2022-12-18T07:43:50;101145.97;;;-4.77;100.00
24031;BME280;12240;51.142;22.486;2022-12-18T07:46:18;101068.53;;;-5.28;100.00
24031;BME280;12240;51.142;22.486;2022-12-18T07:48:47;101164.81;;;-4.57;100.00
24031;BME280;12240;51.142;22.486;2022-12-18T07:51:18;101176.00;;;-4.46;100.00
24031;BME280;12240;51.142;22.486;2022-12-18T07:53:47;101165.63;;;-4.50;100.00
24031;BME280;12240;51.142;22.486;2022-12-18T07:56:19;101190.66;;;-4.42;100.00
24031;BME280;12240;51.142;22.486;2022-12-18T07:58:58;101182.03;;;-4.45;100.00
24031;BME280;12240;51.142;22.486;2022-12-18T08:01:27;101175.19;;;-4.52;100.00
24031;BME280;12240;51.142;22.486;2022-12-18T08:03:57;101201.81;;;-4.29;100.00
24031;BME280;12240;51.142;22.486;2022-12-18T08:06:25;101199.28;;;-4.38;100.00
24031;BME280;12240;51.142;22.486;2022-12-18T08:08:55;101194.09;;;-4.40;100.00
24031;BME280;12240;51.142;22.486;2022-12-18T08:11:26;101210.63;;;-4.42;100.00
24031;BME280;12240;51.142;22.486;2022-12-18T08:13:56;101148.38;;;-4.56;100.00
24031;BME280;12240;51.142;22.486;2022-12-18T08:16:26;101201.00;;;-4.36;100.00
24031;BME280;12240;51.142;22.486;2022-12-18T08:18:55;101205.31;;;-4.32;100.00
24031;BME280;12240;51.142;22.486;2022-12-18T08:21:30;101163.94;;;-4.53;100.00
24031;BME280;12240;51.142;22.486;2022-12-18T08:24:01;101206.97;;;-4.23;100.00
24031;BME280;12240;51.142;22.486;2022-12-18T08:26:30;101220.72;;;-4.15;100.00
24031;BME280;12240;51.142;22.486;2022-12-18T08:29:00;101222.44;;;-4.11;100.00
24031;BME280;12240;51.142;22.486;2022-12-18T08:31:29;101226.81;;;-4.18;100.00
24031;BME280;12240;51.142;22.486;2022-12-18T08:33:58;101220.84;;;-4.26;100.00
24031;BME280;12240;51.142;22.486;2022-12-18T08:36:26;101227.63;;;-4.11;100.00
24031;BME280;12240;51.142;22.486;2022-12-18T08:38:54;101225.06;;;-4.13;100.00
24031;BME280;12240;51.142;22.486;2022-12-18T08:41:23;101231.88;;;-4.06;100.00
24031;BME280;12240;51.142;22.486;2022-12-18T08:43:51;101177.63;;;-4.37;100.00
24031;BME280;12240;51.142;22.486;2022-12-18T08:46:41;101240.47;;;-3.96;100.00
24031;BME280;12240;51.142;22.486;2022-12-18T08:49:11;101244.81;;;-3.98;100.00
24031;BME280;12240;51.142;22.486;2022-12-18T08:51:40;101216.41;;;-4.15;100.00
24031;BME280;12240;51.142;22.486;2022-12-18T08:54:11;101245.69;;;-3.98;100.00
24031;BME280;12240;51.142;22.486;2022-12-18T08:56:41;101241.13;;;-3.79;100.00
24031;BME280;12240;51.142;22.486;2022-12-18T08:59:09;101235.22;;;-3.93;100.00
24031;BME280;12240;51.142;22.486;2022-12-18T09:01:47;101236.16;;;-4.00;100.00
24031;BME280;12240;51.142;22.486;2022-12-18T09:04:16;101245.56;;;-3.86;100.00
24031;BME280;12240;51.142;22.486;2022-12-18T09:06:44;101197.25;;;-4.11;100.00
24031;BME280;12240;51.142;22.486;2022-12-18T09:09:13;101195.75;;;-4.28;100.00
24031;BME280;12240;51.142;22.486;2022-12-18T09:11:41;101258.03;;;-4.18;100.00
24031;BME280;12240;51.142;22.486;2022-12-18T09:14:10;101225.22;;;-4.31;100.00
24031;BME280;12240;51.142;22.486;2022-12-18T09:16:38;101256.22;;;-4.10;100.00
24031;BME280;12240;51.142;22.486;2022-12-18T09:19:06;101256.13;;;-4.02;100.00
24031;BME280;12240;51.142;22.486;2022-12-18T09:21:37;101251.94;;;-4.15;100.00
24031;BME280;12240;51.142;22.486;2022-12-18T09:24:13;101257.75;;;-3.89;100.00
24031;BME280;12240;51.142;22.486;2022-12-18T09:26:42;101260.38;;;-3.95;100.00
24031;BME280;12240;51.142;22.486;2022-12-18T09:29:15;101269.13;;;-3.99;100.00
24031;BME280;12240;51.142;22.486;2022-12-18T09:31:45;101263.03;;;-3.98;100.00
24031;BME280;12240;51.142;22.486;2022-12-18T09:34:14;101073.56;;;-5.12;100.00
24031;BME280;12240;51.142;22.486;2022-12-18T09:36:43;101216.66;;;-4.40;100.00
24031;BME280;12240;51.142;22.486;2022-12-18T09:39:11;101263.22;;;-4.15;100.00
24031;BME280;12240;51.142;22.486;2022-12-18T09:41:52;101227.72;;;-4.20;100.00
24031;BME280;12240;51.142;22.486;2022-12-18T09:44:40;101238.09;;;-4.17;100.00
24031;BME280;12240;51.142;22.486;2022-12-18T09:47:23;101226.13;;;-4.32;100.00
24031;BME280;12240;51.142;22.486;2022-12-18T09:50:00;101249.44;;;-4.24;100.00
24031;BME280;12240;51.142;22.486;2022-12-18T09:52:45;101268.34;;;-4.09;100.00
24031;BME280;12240;51.142;22.486;2022-12-18T09:55:34;101272.34;;;-3.78;100.00
24031;BME280;12240;51.142;22.486;2022-12-18T10:01:00;101266.38;;;-3.86;100.00
24031;BME280;12240;51.142;22.486;2022-12-18T10:03:29;101261.16;;;-3.84;100.00
24031;BME280;12240;51.142;22.486;2022-12-18T10:08:59;101279.38;;;-3.84;100.00
24031;BME280;12240;51.142;22.486;2022-12-18T10:18:01;101278.97;;;-3.53;100.00
24031;BME280;12240;51.142;22.486;2022-12-18T10:20:43;101222.44;;;-4.13;100.00
24031;BME280;12240;51.142;22.486;2022-12-18T10:26:21;101241.13;;;-3.79;100.00
24031;BME280;12240;51.142;22.486;2022-12-18T10:28:51;101297.19;;;-3.53;100.00
24031;BME280;12240;51.142;22.486;2022-12-18T10:31:23;101239.44;;;-3.83;100.00
24031;BME280;12240;51.142;22.486;2022-12-18T10:33:54;101239.56;;;-3.92;100.00
24031;BME280;12240;51.142;22.486;2022-12-18T10:36:24;101297.31;;;-3.60;100.00
24031;BME280;12240;51.142;22.486;2022-12-18T10:38:52;101222.56;;;-4.23;100.00
24031;BME280;12240;51.142;22.486;2022-12-18T10:44:21;101228.47;;;-4.08;100.00
24031;BME280;12240;51.142;22.486;2022-12-18T10:47:03;101204.47;;;-4.34;100.00
24031;BME280;12240;51.142;22.486;2022-12-18T10:49:51;101136.56;;;-4.92;100.00
24031;BME280;12240;51.142;22.486;2022-12-18T10:52:24;101289.13;;;-4.06;100.00
24031;BME280;12240;51.142;22.486;2022-12-18T10:55:00;101295.03;;;-3.92;100.00
24031;BME280;12240;51.142;22.486;2022-12-18T10:57:40;101295.75;;;-3.78;100.00
24031;BME280;12240;51.142;22.486;2022-12-18T11:00:30;101287.00;;;-3.71;100.00
24031;BME280;12240;51.142;22.486;2022-12-18T11:03:01;101224.28;;;-4.22;100.00
24031;BME280;12240;51.142;22.486;2022-12-18T11:05:33;101280.84;;;-3.62;100.00
24031;BME280;12240;51.142;22.486;2022-12-18T11:08:02;101289.69;;;-3.78;100.00
24031;BME280;12240;51.142;22.486;2022-12-18T11:10:32;101269.03;;;-3.93;100.00
24031;BME280;12240;51.142;22.486;2022-12-18T11:15:46;101286.47;;;-4.00;100.00
24031;BME280;12240;51.142;22.486;2022-12-18T11:18:29;101298.59;;;-3.99;100.00
24031;BME280;12240;51.142;22.486;2022-12-18T11:26:01;101236.03;;;-4.76;100.00
24031;BME280;12240;51.142;22.486;2022-12-18T11:28:49;101313.47;;;-4.10;100.00
24031;BME280;12240;51.142;22.486;2022-12-18T11:31:27;101314.22;;;-4.02;100.00
24031;BME280;12240;51.142;22.486;2022-12-18T11:34:45;101311.94;;;-4.32;100.00
24031;BME280;12240;51.142;22.486;2022-12-18T11:37:15;101305.66;;;-4.10;100.00
24031;BME280;12240;51.142;22.486;2022-12-18T11:40:16;101309.16;;;-4.14;100.00
24031;BME280;12240;51.142;22.486;2022-12-18T11:43:02;101316.84;;;-4.02;100.00
24031;BME280;12240;51.142;22.486;2022-12-18T11:48:58;101320.25;;;-3.97;100.00
24031;BME280;12240;51.142;22.486;2022-12-18T11:54:20;101310.16;;;-4.27;100.00
24031;BME280;12240;51.142;22.486;2022-12-18T12:11:03;101275.81;;;-4.65;100.00
24031;BME280;12240;51.142;22.486;2022-12-18T12:13:46;101332.53;;;-4.11;100.00
24031;BME280;12240;51.142;22.486;2022-12-18T12:16:57;101288.38;;;-4.17;100.00
24031;BME280;12240;51.142;22.486;2022-12-18T12:19:54;101341.06;;;-3.97;100.00
24031;BME280;12240;51.142;22.486;2022-12-18T12:31:17;101363.22;;;-4.52;100.00
24031;BME280;12240;51.142;22.486;2022-12-18T12:34:13;101356.97;;;-4.30;100.00
24031;BME280;12240;51.142;22.486;2022-12-18T12:39:47;101354.75;;;-4.81;100.00
24031;BME280;12240;51.142;22.486;2022-12-18T12:42:58;101343.56;;;-4.92;100.00
24031;BME280;12240;51.142;22.486;2022-12-18T12:46:06;101349.53;;;-4.77;100.00
24031;BME280;12240;51.142;22.486;2022-12-18T12:48:46;101357.41;;;-4.93;100.00
24031;BME280;12240;51.142;22.486;2022-12-18T12:51:24;101363.44;;;-4.90;100.00
24031;BME280;12240;51.142;22.486;2022-12-18T12:53:56;101304.81;;;-5.30;100.00
24031;BME280;12240;51.142;22.486;2022-12-18T13:03:24;101396.09;;;-4.46;100.00
24031;BME280;12240;51.142;22.486;2022-12-18T13:09:02;101419.63;;;-4.69;100.00
24031;BME280;12240;51.142;22.486;2022-12-18T13:14:37;101392.94;;;-4.97;100.00
24031;BME280;12240;51.142;22.486;2022-12-18T13:20:12;101437.84;;;-4.72;100.00
24031;BME280;12240;51.142;22.486;2022-12-18T13:22:48;101431.94;;;-5.04;100.00
24031;BME280;12240;51.142;22.486;2022-12-18T13:30:46;101441.50;;;-5.09;100.00
24031;BME280;12240;51.142;22.486;2022-12-18T13:39:32;101463.06;;;-4.91;100.00
24031;BME280;12240;51.142;22.486;2022-12-18T13:44:40;101471.81;;;-5.23;100.00
24031;BME280;12240;51.142;22.486;2022-12-18T13:47:33;101438.16;;;-5.79;100.00
24031;BME280;12240;51.142;22.486;2022-12-18T13:50:23;101418.31;;;-6.24;100.00
24031;BME280;12240;51.142;22.486;2022-12-18T13:52:59;101454.63;;;-6.16;100.00
24031;BME280;12240;51.142;22.486;2022-12-18T13:55:29;101489.22;;;-5.88;100.00
24031;BME280;12240;51.142;22.486;2022-12-18T13:58:06;101498.72;;;-5.84;100.00
24031;BME280;12240;51.142;22.486;2022-12-18T14:00:35;101505.63;;;-5.79;100.00
24031;BME280;12240;51.142;22.486;2022-12-18T14:03:26;101486.63;;;-5.85;100.00
24031;BME280;12240;51.142;22.486;2022-12-18T14:06:06;101451.16;;;-6.15;100.00
24031;BME280;12240;51.142;22.486;2022-12-18T14:08:39;101509.09;;;-5.80;100.00
24031;BME280;12240;51.142;22.486;2022-12-18T14:11:22;101507.38;;;-5.99;100.00
24031;BME280;12240;51.142;22.486;2022-12-18T14:13:53;101514.25;;;-6.24;100.00
24031;BME280;12240;51.142;22.486;2022-12-18T14:16:22;101521.13;;;-6.36;100.00
24031;BME280;12240;51.142;22.486;2022-12-18T14:18:55;101469.19;;;-6.72;100.00
24031;BME280;12240;51.142;22.486;2022-12-18T14:21:32;101528.91;;;-6.35;100.00
24031;BME280;12240;51.142;22.486;2022-12-18T14:24:13;101528.06;;;-6.16;100.00
24031;BME280;12240;51.142;22.486;2022-12-18T14:26:48;101528.97;;;-6.02;100.00
24031;BME280;12240;51.142;22.486;2022-12-18T14:29:44;101466.69;;;-6.41;100.00
24031;BME280;12240;51.142;22.486;2022-12-18T14:32:19;101554.94;;;-5.83;100.00
24031;BME280;12240;51.142;22.486;2022-12-18T14:35:12;101550.59;;;-5.78;100.00
24031;BME280;12240;51.142;22.486;2022-12-18T14:37:44;101532.47;;;-5.93;100.00
24031;BME280;12240;51.142;22.486;2022-12-18T14:40:13;101498.69;;;-6.28;100.00
24031;BME280;12240;51.142;22.486;2022-12-18T14:42:42;101560.16;;;-5.86;100.00
24031;BME280;12240;51.142;22.486;2022-12-18T14:45:36;101557.50;;;-5.79;100.00
24031;BME280;12240;51.142;22.486;2022-12-18T14:51:16;101569.56;;;-6.17;100.00
24031;BME280;12240;51.142;22.486;2022-12-18T14:53:48;101515.97;;;-6.29;100.00
24031;BME280;12240;51.142;22.486;2022-12-18T14:56:35;101572.22;;;-5.94;100.00
24031;BME280;12240;51.142;22.486;2022-12-18T14:59:20;101565.28;;;-6.08;100.00
24031;BME280;12240;51.142;22.486;2022-12-18T15:04:37;101577.34;;;-6.25;100.00
24031;BME280;12240;51.142;22.486;2022-12-18T15:07:22;101579.94;;;-6.19;100.00